Time;durP1;ratioP1;P1;durP2;ratioP2;P2;SDS_P1;SDS_P2;PMS_P1;PMS_P2;Temp;Humidity;BMP_temperature;BMP_pressure;BME280_temperature;BME280_humidity;BME280_pressure;Samples;Min_cycle;Max_cycle;Signal;HPM_P1;HPM_P2
2021/10/06 00:08:57;;;;;;;0.20;0.00;;;19.40;99.90;;;;;;20829002;22;20262;-68
2021/10/06 00:19:03;;;;;;;0.20;0.00;;;19.40;99.90;;;;;;20816020;28;20214;-68
2021/10/06 00:29:08;;;;;;;0.20;0.10;;;19.40;99.90;;;;;;20815274;28;20252;-70
2021/10/06 00:39:13;;;;;;;0.20;0.00;;;19.30;99.90;;;;;;20818361;28;20277;-68
2021/10/06 00:49:18;;;;;;;0.20;0.00;;;19.30;99.90;;;;;;20831422;28;20191;-68
2021/10/06 00:59:22;;;;;;;0.30;0.23;;;19.20;99.90;;;;;;20843516;22;20252;-68
2021/10/06 01:09:28;;;;;;;0.20;0.20;;;19.20;99.90;;;;;;20829662;28;20213;-69
2021/10/06 01:19:34;;;;;;;0.20;0.10;;;19.10;99.90;;;;;;20828707;28;20261;-69
2021/10/06 01:29:39;;;;;;;0.20;0.00;;;19.10;99.90;;;;;;20828109;28;20199;-68
2021/10/06 01:39:43;;;;;;;0.20;0.00;;;19.20;99.90;;;;;;20825633;28;20222;-69
2021/10/06 01:49:48;;;;;;;0.20;0.10;;;19.20;99.90;;;;;;20824214;28;20604;-69
2021/10/06 01:59:51;;;;;;;0.20;0.00;;;19.30;99.90;;;;;;20825660;28;20593;-68
2021/10/06 02:09:56;;;;;;;0.20;0.10;;;19.20;99.90;;;;;;20824579;28;20240;-69
2021/10/06 02:20:00;;;;;;;0.20;0.10;;;19.00;99.90;;;;;;20825620;28;20226;-68
2021/10/06 02:30:07;;;;;;;0.20;0.10;;;18.80;99.90;;;;;;20824594;28;20787;-68
2021/10/06 02:40:13;;;;;;;0.20;0.03;;;18.70;99.90;;;;;;20823104;28;20280;-68
2021/10/06 02:50:22;;;;;;;0.20;0.10;;;18.70;99.90;;;;;;20823380;28;20199;-69
2021/10/06 03:00:26;;;;;;;0.20;0.00;;;18.30;99.90;;;;;;20822884;22;20238;-67
2021/10/06 03:10:31;;;;;;;0.20;0.20;;;18.20;99.90;;;;;;20786157;28;20542;-66
2021/10/06 03:20:36;;;;;;;0.20;0.10;;;18.30;99.90;;;;;;20821072;28;20233;-66
2021/10/06 03:30:41;;;;;;;0.20;0.10;;;18.40;99.90;;;;;;20750822;28;20521;-66
2021/10/06 03:40:45;;;;;;;3.00;1.17;;;18.50;99.90;;;;;;20815507;28;20236;-66
2021/10/06 03:50:52;;;;;;;6.90;0.50;;;18.80;99.90;;;;;;20818059;28;20248;-66
2021/10/06 04:00:57;;;;;;;0.20;0.10;;;18.80;99.90;;;;;;20816888;22;20230;-68
2021/10/06 04:11:02;;;;;;;0.20;0.00;;;19.00;99.90;;;;;;20733484;28;20198;-67
2021/10/06 04:21:05;;;;;;;0.53;0.43;;;18.90;99.90;;;;;;20733065;28;20264;-68
2021/10/06 04:31:11;;;;;;;0.20;0.00;;;18.90;99.90;;;;;;20735073;28;20609;-68
2021/10/06 04:41:16;;;;;;;0.43;0.37;;;18.60;99.90;;;;;;20652610;28;20228;-67
2021/10/06 04:51:21;;;;;;;0.50;0.50;;;18.60;99.90;;;;;;20651942;28;20203;-67
2021/10/06 05:01:25;;;;;;;0.20;0.10;;;18.60;99.90;;;;;;20689147;28;20234;-68
2021/10/06 05:11:30;;;;;;;6.43;0.77;;;18.60;99.90;;;;;;20811529;28;20190;-68
2021/10/06 05:21:34;;;;;;;0.33;0.30;;;18.80;99.90;;;;;;20812821;28;20694;-68
2021/10/06 05:31:39;;;;;;;0.30;0.30;;;18.90;99.90;;;;;;20734398;28;20296;-68
2021/10/06 05:41:43;;;;;;;0.30;0.30;;;18.90;99.90;;;;;;20743521;28;20421;-70
2021/10/06 05:51:48;;;;;;;1.37;1.13;;;18.80;99.90;;;;;;20743390;28;20632;-67
2021/10/06 06:01:52;;;;;;;0.20;0.10;;;19.00;99.90;;;;;;20738608;28;20567;-68
2021/10/06 06:11:57;;;;;;;1.23;1.13;;;19.00;99.90;;;;;;20736616;28;20218;-68
2021/10/06 06:22:01;;;;;;;4.77;0.90;;;19.00;99.90;;;;;;20740183;28;20302;-68
2021/10/06 06:32:06;;;;;;;0.20;0.10;;;19.10;99.90;;;;;;20664335;28;20248;-69
2021/10/06 06:42:10;;;;;;;0.27;0.27;;;19.00;99.90;;;;;;20682179;28;20221;-69
2021/10/06 06:52:15;;;;;;;0.20;0.10;;;19.00;99.90;;;;;;20714927;28;20200;-69
2021/10/06 07:02:19;;;;;;;0.20;0.10;;;19.10;99.90;;;;;;20658400;28;20227;-69
2021/10/06 07:12:24;;;;;;;3.20;0.83;;;19.30;99.90;;;;;;20657311;28;20219;-69
2021/10/06 07:22:28;;;;;;;0.20;0.10;;;19.30;99.90;;;;;;20684402;28;20199;-69
2021/10/06 07:32:33;;;;;;;0.20;0.20;;;19.50;99.90;;;;;;20665584;28;20219;-69
2021/10/06 07:42:36;;;;;;;0.20;0.13;;;19.40;99.90;;;;;;20680155;28;20206;-69
2021/10/06 07:52:42;;;;;;;0.20;0.10;;;19.40;99.90;;;;;;20772127;28;20214;-68
2021/10/06 08:02:45;;;;;;;0.30;0.20;;;19.60;99.90;;;;;;20814449;28;20255;-70
2021/10/06 08:12:51;;;;;;;0.20;0.07;;;19.90;99.90;;;;;;20776095;28;20284;-69
2021/10/06 08:22:54;;;;;;;0.40;0.23;;;20.10;99.90;;;;;;20687677;28;20206;-69
2021/10/06 08:33:00;;;;;;;0.20;0.20;;;20.10;99.90;;;;;;20726913;28;20215;-70
2021/10/06 08:43:06;;;;;;;0.20;0.10;;;20.40;99.90;;;;;;20692465;28;20191;-70
2021/10/06 08:53:12;;;;;;;1.40;0.37;;;20.60;99.90;;;;;;20708306;28;20302;-68
2021/10/06 09:03:24;;;;;;;0.30;0.30;;;20.60;99.90;;;;;;20657435;28;20709;-69
2021/10/06 09:13:31;;;;;;;0.20;0.10;;;20.70;99.90;;;;;;20700504;28;20226;-70
2021/10/06 09:23:38;;;;;;;0.50;0.40;;;21.00;99.90;;;;;;20665379;28;20254;-71
2021/10/06 09:33:44;;;;;;;0.57;0.50;;;21.30;99.90;;;;;;20729867;28;20219;-69
2021/10/06 09:43:56;;;;;;;23.23;0.57;;;20.70;99.90;;;;;;20732335;28;20206;-70
2021/10/06 09:54:23;;;;;;;0.40;0.40;;;20.60;99.90;;;;;;20738376;28;20225;-69
2021/10/06 10:04:28;;;;;;;0.30;0.30;;;20.50;99.90;;;;;;20741726;28;20250;-67
2021/10/06 10:14:33;;;;;;;1.77;1.00;;;20.80;99.90;;;;;;20740595;28;20671;-68
2021/10/06 10:24:45;;;;;;;0.30;0.20;;;21.40;99.90;;;;;;20726165;28;20874;-69
2021/10/06 10:35:10;;;;;;;0.33;0.27;;;22.00;99.90;;;;;;20725455;28;20217;-69
2021/10/06 10:45:36;;;;;;;1.40;0.20;;;23.20;99.90;;;;;;20737729;28;20202;-69
2021/10/06 10:55:52;;;;;;;0.20;0.20;;;22.10;99.90;;;;;;20738545;28;20269;-67
2021/10/06 11:05:57;;;;;;;0.23;0.20;;;22.20;99.90;;;;;;20721659;28;20227;-66
2021/10/06 11:16:02;;;;;;;0.20;0.00;;;21.90;99.90;;;;;;20691300;28;20227;-67
2021/10/06 11:26:08;;;;;;;0.20;0.00;;;21.90;99.90;;;;;;20707709;28;20302;-69
2021/10/06 11:36:16;;;;;;;7.88;0.55;;;22.30;99.90;;;;;;20733509;28;20219;-67
2021/10/06 11:46:22;;;;;;;0.20;0.10;;;24.00;99.90;;;;;;20736246;28;20203;-68
2021/10/06 11:56:29;;;;;;;0.20;0.00;;;25.20;99.90;;;;;;20716557;28;20231;-70
2021/10/06 12:06:35;;;;;;;0.20;0.10;;;22.90;99.90;;;;;;20689529;28;20588;-70
2021/10/06 12:16:40;;;;;;;0.20;0.10;;;22.50;99.90;;;;;;20681427;28;20226;-69
2021/10/06 12:26:45;;;;;;;0.20;0.00;;;23.20;99.90;;;;;;20675357;28;20218;-70
2021/10/06 12:36:52;;;;;;;2.57;0.50;;;21.90;99.90;;;;;;20718491;28;20238;-69
2021/10/06 12:46:57;;;;;;;6.90;1.10;;;21.80;99.90;;;;;;20744461;28;20198;-69
2021/10/06 12:57:04;;;;;;;0.43;0.17;;;24.30;99.90;;;;;;20743948;28;20785;-67
2021/10/06 13:07:10;;;;;;;9.18;1.00;;;27.20;99.90;;;;;;20737529;28;20679;-68
2021/10/06 13:17:15;;;;;;;0.20;0.00;;;26.30;99.90;;;;;;20741562;28;20246;-69
2021/10/06 13:27:19;;;;;;;2.00;0.40;;;26.80;99.90;;;;;;20711212;28;20269;-68
2021/10/06 13:37:24;;;;;;;0.70;0.40;;;27.70;99.90;;;;;;20715705;28;20218;-69
2021/10/06 13:47:29;;;;;;;6.07;0.32;;;27.20;99.90;;;;;;20741441;28;20202;-68
2021/10/06 13:57:34;;;;;;;1.85;0.10;;;27.60;99.90;;;;;;20739754;28;20286;-68
2021/10/06 14:07:38;;;;;;;0.68;0.38;;;27.20;99.90;;;;;;20740467;28;20229;-66
2021/10/06 14:17:43;;;;;;;0.52;0.35;;;27.10;99.90;;;;;;20739295;28;20222;-67
2021/10/06 14:27:49;;;;;;;4.10;0.43;;;28.10;99.90;;;;;;20705255;28;20285;-67
2021/10/06 14:37:55;;;;;;;1.10;0.90;;;27.20;99.90;;;;;;20739517;28;20522;-67
2021/10/06 14:48:01;;;;;;;5.13;0.60;;;27.40;99.90;;;;;;20734804;28;20249;-69
2021/10/06 14:58:07;;;;;;;0.28;0.20;;;27.40;99.90;;;;;;20656857;28;20227;-68
2021/10/06 15:08:12;;;;;;;0.73;0.73;;;26.70;99.90;;;;;;20656060;28;20596;-67
2021/10/06 15:18:18;;;;;;;0.20;0.10;;;26.50;99.90;;;;;;20680247;28;20226;-68
2021/10/06 15:28:21;;;;;;;2.08;0.17;;;26.10;99.90;;;;;;20713186;28;20543;-67
2021/10/06 15:38:28;;;;;;;0.20;0.00;;;24.80;99.90;;;;;;20732801;28;20233;-68
2021/10/06 15:48:32;;;;;;;0.28;0.15;;;23.70;99.90;;;;;;20659975;28;20199;-68
2021/10/06 15:58:38;;;;;;;0.20;0.20;;;23.10;99.90;;;;;;20721754;28;20222;-69
2021/10/06 16:08:49;;;;;;;0.33;0.30;;;22.40;99.90;;;;;;20733028;28;20728;-72
2021/10/06 16:18:55;;;;;;;1.17;0.80;;;21.70;99.90;;;;;;20733668;28;20989;-66
2021/10/06 16:28:59;;;;;;;0.20;0.10;;;21.70;99.90;;;;;;20699648;28;20566;-67
2021/10/06 16:39:04;;;;;;;0.70;0.67;;;21.50;99.90;;;;;;20732550;28;20310;-68
2021/10/06 16:49:09;;;;;;;2.33;0.43;;;21.40;99.90;;;;;;20731626;28;20199;-64
2021/10/06 16:59:16;;;;;;;2.20;0.70;;;21.20;99.90;;;;;;20730758;28;20273;-66
2021/10/06 17:09:20;;;;;;;2.97;0.40;;;21.00;99.90;;;;;;20730436;28;20199;-66
2021/10/06 17:19:26;;;;;;;0.20;0.10;;;20.70;99.90;;;;;;20732002;28;20692;-67
2021/10/06 17:29:32;;;;;;;0.97;0.60;;;20.60;99.90;;;;;;20744235;28;20206;-66
2021/10/06 17:39:37;;;;;;;0.20;0.10;;;20.50;99.90;;;;;;20774574;28;20338;-66
2021/10/06 17:49:41;;;;;;;0.67;0.67;;;20.40;99.90;;;;;;20742012;28;20878;-66
2021/10/06 17:59:46;;;;;;;0.20;0.03;;;20.30;99.90;;;;;;20739993;28;20250;-65
2021/10/06 18:09:50;;;;;;;1.23;0.47;;;20.10;99.90;;;;;;20736604;28;20238;-65
2021/10/06 18:19:55;;;;;;;1.90;0.53;;;20.00;99.90;;;;;;20736412;28;20536;-66
2021/10/06 18:29:59;;;;;;;7.30;1.83;;;20.00;99.90;;;;;;20675305;28;20199;-65
2021/10/06 18:40:06;;;;;;;2.23;1.40;;;19.80;99.90;;;;;;20804950;28;20230;-66
2021/10/06 18:50:11;;;;;;;1.03;0.43;;;19.20;99.90;;;;;;20818184;28;20608;-71
2021/10/06 19:00:22;;;;;;;0.20;0.10;;;18.80;99.90;;;;;;20817338;28;20313;-64
2021/10/06 19:10:26;;;;;;;0.50;0.33;;;18.30;99.90;;;;;;20814752;28;20205;-66
2021/10/06 19:20:31;;;;;;;0.50;0.50;;;18.30;99.90;;;;;;20688373;28;20683;-65
2021/10/06 19:30:35;;;;;;;0.20;0.10;;;17.90;99.90;;;;;;20687991;28;20721;-65
2021/10/06 19:40:41;;;;;;;0.40;0.40;;;17.70;99.90;;;;;;20711454;28;20222;-65
2021/10/06 19:50:45;;;;;;;1.13;0.53;;;17.90;99.90;;;;;;20732485;28;20229;-65
2021/10/06 20:00:50;;;;;;;0.30;0.30;;;17.90;99.90;;;;;;20734109;28;20265;-66
2021/10/06 20:10:54;;;;;;;0.20;0.10;;;17.60;99.90;;;;;;20774028;28;20589;-66
2021/10/06 20:21:00;;;;;;;0.20;0.10;;;17.70;99.90;;;;;;20816690;28;20222;-65
2021/10/06 20:41:22;;;;;;;3.53;1.57;;;17.50;99.90;;;;;;21919611;23;20231;-70
2021/10/06 20:51:26;;;;;;;6.43;1.00;;;17.50;99.90;;;;;;20651515;28;20230;-69
2021/10/06 21:01:31;;;;;;;0.20;0.00;;;17.60;99.90;;;;;;20663996;28;20707;-69
2021/10/06 21:11:35;;;;;;;0.20;0.10;;;17.70;99.90;;;;;;20664902;28;20294;-68
2021/10/06 21:21:40;;;;;;;0.20;0.03;;;17.60;99.90;;;;;;20665523;28;20723;-69
2021/10/06 21:31:44;;;;;;;0.20;0.00;;;17.50;99.90;;;;;;20731514;28;20230;-69
2021/10/06 21:41:49;;;;;;;0.40;0.27;;;17.50;99.90;;;;;;20664490;28;20242;-69
2021/10/06 21:51:54;;;;;;;0.20;0.10;;;17.50;99.90;;;;;;20662946;28;20672;-68
2021/10/06 22:02:01;;;;;;;0.30;0.20;;;17.60;99.90;;;;;;20663761;28;20254;-69
2021/10/06 22:12:06;;;;;;;1.07;0.40;;;17.60;99.90;;;;;;20662729;28;20203;-69
2021/10/06 22:22:11;;;;;;;0.40;0.10;;;17.50;99.90;;;;;;20662138;28;20223;-70
2021/10/06 22:32:15;;;;;;;0.97;0.67;;;17.40;99.90;;;;;;20728425;28;20250;-69
2021/10/06 22:42:20;;;;;;;0.33;0.30;;;17.30;99.90;;;;;;20659953;28;20700;-69
2021/10/06 22:52:23;;;;;;;0.57;0.30;;;17.40;99.90;;;;;;20642603;28;20230;-68
2021/10/06 23:02:28;;;;;;;0.20;0.10;;;17.50;99.90;;;;;;20658528;28;20247;-72
2021/10/06 23:12:32;;;;;;;0.20;0.10;;;17.50;99.90;;;;;;20657485;28;20222;-69
2021/10/06 23:22:37;;;;;;;0.20;0.00;;;17.50;99.90;;;;;;20657455;28;20227;-69
2021/10/06 23:32:41;;;;;;;0.20;0.10;;;17.40;99.90;;;;;;20724382;28;20231;-68
2021/10/06 23:42:46;;;;;;;8.93;0.50;;;17.30;99.90;;;;;;20655761;28;20235;-67
2021/10/06 23:52:50;;;;;;;0.60;0.53;;;17.20;99.90;;;;;;20655544;28;20198;-67
